Time;durP1;ratioP1;P1;durP2;ratioP2;P2;SDS_P1;SDS_P2;PMS_P1;PMS_P2;Temp;Humidity;BMP_temperature;BMP_pressure;BME280_temperature;BME280_humidity;BME280_pressure;Samples;Min_cycle;Max_cycle;Signal;HPM_P1;HPM_P2
2021/03/15 00:02:29;;;;;;;4.80;4.00;;;6.50;99.90;;;;;;10369801;28;20206;-80
2021/03/15 00:07:31;;;;;;;4.17;3.77;;;6.40;99.90;;;;;;10351916;28;20573;-81
2021/03/15 00:12:34;;;;;;;4.93;4.00;;;6.40;99.90;;;;;;10351723;28;20234;-80
2021/03/15 00:17:35;;;;;;;4.00;3.70;;;6.40;99.90;;;;;;10355577;28;20242;-81
2021/03/15 00:22:38;;;;;;;4.50;4.03;;;6.40;99.90;;;;;;10371381;28;20217;-81
2021/03/15 00:27:42;;;;;;;4.63;4.17;;;6.40;99.90;;;;;;10383220;28;20226;-80
2021/03/15 00:32:45;;;;;;;5.70;3.70;;;6.30;99.90;;;;;;10370829;28;20705;-80
2021/03/15 00:37:50;;;;;;;3.80;3.43;;;6.30;99.90;;;;;;10368174;28;20234;-80
2021/03/15 00:42:54;;;;;;;3.93;3.53;;;6.20;99.90;;;;;;10351095;28;20210;-81
2021/03/15 00:47:55;;;;;;;7.23;3.90;;;6.20;99.90;;;;;;10349945;28;20318;-81
2021/03/15 00:52:58;;;;;;;4.90;4.00;;;6.20;99.90;;;;;;10366198;28;20218;-80
2021/03/15 00:58:02;;;;;;;4.10;3.70;;;6.10;99.90;;;;;;10386158;28;20246;-80
2021/03/15 01:03:05;;;;;;;3.80;3.60;;;6.20;99.90;;;;;;10384135;28;20211;-80
2021/03/15 01:08:07;;;;;;;4.50;4.10;;;6.20;99.90;;;;;;10337513;28;20227;-80
2021/03/15 01:13:11;;;;;;;5.70;3.67;;;6.20;99.90;;;;;;10352665;28;20767;-80
2021/03/15 01:18:13;;;;;;;4.87;3.87;;;6.10;99.90;;;;;;10353221;28;20230;-80
2021/03/15 01:23:15;;;;;;;6.83;4.30;;;6.10;99.90;;;;;;10333424;28;20242;-80
2021/03/15 01:28:19;;;;;;;5.40;3.60;;;6.10;99.90;;;;;;10351934;28;20223;-80
2021/03/15 01:33:21;;;;;;;4.90;3.60;;;6.10;99.90;;;;;;10334158;28;20668;-80
2021/03/15 01:38:23;;;;;;;4.30;4.00;;;6.10;99.90;;;;;;10353480;28;20233;-80
2021/03/15 01:43:25;;;;;;;4.70;4.33;;;6.10;99.90;;;;;;10348899;28;20207;-81
2021/03/15 01:48:27;;;;;;;4.00;3.60;;;6.10;99.90;;;;;;10351680;28;20243;-80
2021/03/15 01:53:30;;;;;;;4.73;4.33;;;6.00;99.90;;;;;;10357779;28;20597;-80
2021/03/15 01:58:32;;;;;;;5.73;4.67;;;6.00;99.90;;;;;;10355789;28;20580;-80
2021/03/15 02:03:34;;;;;;;7.17;4.70;;;6.00;99.90;;;;;;10362098;28;20292;-81
2021/03/15 02:08:36;;;;;;;4.83;4.33;;;6.00;99.90;;;;;;10400431;28;20229;-80
2021/03/15 02:14:10;;;;;;;4.40;4.03;;;6.00;99.90;;;;;;10399683;28;20202;-80
2021/03/15 02:19:57;;;;;;;7.30;4.00;;;5.90;99.90;;;;;;10399908;28;20234;-81
2021/03/15 02:25:29;;;;;;;5.93;3.90;;;5.90;99.90;;;;;;10408493;28;20210;-81
2021/03/15 02:30:59;;;;;;;7.00;4.40;;;5.80;99.90;;;;;;10385297;28;20267;-81
2021/03/15 02:36:03;;;;;;;4.37;4.07;;;5.80;99.90;;;;;;10389232;28;20674;-81
2021/03/15 02:41:07;;;;;;;4.47;4.17;;;5.80;99.90;;;;;;10378466;28;20227;-81
2021/03/15 02:46:15;;;;;;;7.10;4.73;;;5.80;99.90;;;;;;10356748;28;20655;-81
2021/03/15 02:51:22;;;;;;;3.63;3.10;;;5.80;99.90;;;;;;10383883;28;20650;-81
2021/03/15 02:56:26;;;;;;;4.30;3.90;;;5.80;99.90;;;;;;10387690;28;20221;-81
2021/03/15 03:01:30;;;;;;;4.93;3.50;;;5.80;99.90;;;;;;10360460;28;20247;-81
2021/03/15 03:06:32;;;;;;;5.23;3.97;;;5.90;99.90;;;;;;10393976;28;20250;-81
2021/03/15 03:11:35;;;;;;;3.40;3.10;;;5.80;99.90;;;;;;10354516;28;20620;-81
2021/03/15 03:16:40;;;;;;;3.43;3.23;;;5.90;99.90;;;;;;10369845;28;20234;-81
2021/03/15 03:21:44;;;;;;;3.60;3.17;;;5.90;99.90;;;;;;10371059;28;20288;-81
2021/03/15 03:26:47;;;;;;;3.17;2.87;;;5.90;99.90;;;;;;10372023;28;20226;-81
2021/03/15 03:31:50;;;;;;;4.10;3.53;;;5.90;99.90;;;;;;10370258;28;20214;-81
2021/03/15 03:36:55;;;;;;;4.73;3.80;;;5.80;99.90;;;;;;10386630;28;20226;-81
2021/03/15 03:41:57;;;;;;;6.60;3.67;;;5.80;99.90;;;;;;10389993;28;20250;-81
2021/03/15 03:46:59;;;;;;;5.00;3.57;;;5.80;99.90;;;;;;10393017;28;20249;-81
2021/03/15 03:52:04;;;;;;;6.30;3.60;;;5.80;99.90;;;;;;10391709;28;20231;-81
2021/03/15 03:57:10;;;;;;;3.77;3.30;;;5.80;99.90;;;;;;10358962;28;20218;-81
2021/03/15 04:02:12;;;;;;;3.40;3.10;;;5.80;99.90;;;;;;10357450;28;20256;-81
2021/03/15 04:07:24;;;;;;;3.10;2.90;;;5.80;99.90;;;;;;10359437;28;20234;-81
2021/03/15 04:12:27;;;;;;;3.07;2.80;;;5.80;99.90;;;;;;10361061;28;20297;-81
2021/03/15 04:17:34;;;;;;;3.07;2.87;;;5.90;99.90;;;;;;10382095;28;20234;-81
2021/03/15 04:22:50;;;;;;;3.80;3.30;;;5.80;99.90;;;;;;10348678;28;20261;-81
2021/03/15 04:27:54;;;;;;;4.00;3.60;;;5.70;99.90;;;;;;10380656;28;20225;-81
2021/03/15 04:32:57;;;;;;;3.83;3.43;;;5.60;99.90;;;;;;10376989;28;20349;-81
2021/03/15 04:38:02;;;;;;;3.60;3.40;;;5.50;99.90;;;;;;10366830;28;20227;-81
2021/03/15 04:43:04;;;;;;;5.07;4.17;;;5.40;99.90;;;;;;10357065;28;20219;-81
2021/03/15 04:48:07;;;;;;;5.20;3.70;;;5.30;99.90;;;;;;10361932;28;20226;-81
2021/03/15 04:53:10;;;;;;;4.10;3.77;;;5.30;99.90;;;;;;10378079;28;20213;-81
2021/03/15 04:58:15;;;;;;;6.00;4.70;;;5.30;99.90;;;;;;10378702;28;20702;-81
2021/03/15 05:03:19;;;;;;;3.90;3.60;;;5.30;99.90;;;;;;10353171;28;20210;-81
2021/03/15 05:08:26;;;;;;;9.00;4.37;;;5.30;99.90;;;;;;10380139;28;20233;-81
2021/03/15 05:13:29;;;;;;;4.93;4.43;;;5.30;99.90;;;;;;10364942;28;20585;-81
2021/03/15 05:18:31;;;;;;;5.83;5.40;;;5.30;99.90;;;;;;10375214;28;20237;-81
2021/03/15 05:23:35;;;;;;;5.70;5.17;;;5.30;99.90;;;;;;10364890;28;20210;-81
2021/03/15 05:28:37;;;;;;;6.03;5.63;;;5.30;99.90;;;;;;10371703;28;20599;-81
2021/03/15 05:33:41;;;;;;;7.60;7.03;;;5.30;99.90;;;;;;10369713;28;20202;-81
2021/03/15 05:38:44;;;;;;;5.20;4.70;;;5.30;99.90;;;;;;10362557;28;20222;-79
2021/03/15 05:44:12;;;;;;;7.03;6.40;;;5.30;99.90;;;;;;10381368;28;20213;-79
2021/03/15 05:49:39;;;;;;;7.50;6.90;;;5.30;99.90;;;;;;10377027;28;20227;-79
2021/03/15 05:55:23;;;;;;;8.83;8.10;;;5.30;99.90;;;;;;10348729;28;20203;-79
2021/03/15 06:00:36;;;;;;;7.53;6.93;;;5.30;99.90;;;;;;10381914;28;20225;-77
2021/03/15 06:05:44;;;;;;;8.50;7.90;;;5.20;99.90;;;;;;10367886;28;20210;-77
2021/03/15 06:11:03;;;;;;;8.33;7.63;;;5.10;99.90;;;;;;10376616;28;20594;-77
2021/03/15 06:16:06;;;;;;;7.20;6.70;;;5.10;99.90;;;;;;10392998;28;20198;-77
2021/03/15 06:21:11;;;;;;;8.40;7.70;;;5.00;99.90;;;;;;10378169;28;20712;-77
2021/03/15 06:26:14;;;;;;;8.30;7.70;;;4.90;99.90;;;;;;10353413;28;20203;-77
2021/03/15 06:31:17;;;;;;;8.37;7.60;;;4.90;99.90;;;;;;10347508;28;20215;-77
2021/03/15 06:36:19;;;;;;;7.93;7.53;;;4.90;99.90;;;;;;10363940;28;20465;-77
2021/03/15 06:41:24;;;;;;;8.10;7.60;;;5.00;99.90;;;;;;10374777;28;20233;-76
2021/03/15 06:46:26;;;;;;;6.43;6.03;;;5.00;99.90;;;;;;10376378;28;20986;-77
2021/03/15 06:51:27;;;;;;;8.50;7.80;;;5.00;99.90;;;;;;10375765;28;20210;-77
2021/03/15 06:56:30;;;;;;;8.53;6.13;;;5.10;99.90;;;;;;10376203;28;20222;-77
2021/03/15 07:01:32;;;;;;;6.97;6.47;;;5.20;99.90;;;;;;10376611;28;20285;-78
2021/03/15 07:06:35;;;;;;;6.30;5.90;;;5.20;99.90;;;;;;10376297;28;20238;-77
2021/03/15 07:11:38;;;;;;;6.70;6.23;;;5.30;99.90;;;;;;10362903;28;20213;-77
2021/03/15 07:16:40;;;;;;;4.90;4.60;;;5.30;99.90;;;;;;10376381;28;20257;-78
2021/03/15 07:21:42;;;;;;;5.30;5.00;;;5.40;99.90;;;;;;10372542;28;20693;-77
2021/03/15 07:26:46;;;;;;;5.27;4.97;;;5.60;99.90;;;;;;10373455;28;20309;-77
2021/03/15 07:31:49;;;;;;;4.90;4.60;;;5.70;99.90;;;;;;10373161;28;20202;-77
2021/03/15 07:36:54;;;;;;;5.00;4.80;;;5.70;99.90;;;;;;10373217;28;20226;-80
2021/03/15 07:41:57;;;;;;;6.00;5.67;;;5.70;99.90;;;;;;10374452;28;20237;-77
2021/03/15 07:47:01;;;;;;;4.83;4.53;;;5.50;99.90;;;;;;10373826;28;20317;-80
2021/03/15 07:52:05;;;;;;;5.57;5.33;;;5.30;99.90;;;;;;10374248;28;20282;-77
2021/03/15 07:57:22;;;;;;;5.27;5.07;;;5.20;99.90;;;;;;10373413;28;20690;-77
2021/03/15 08:02:26;;;;;;;4.27;4.17;;;5.10;99.90;;;;;;10373522;28;20589;-77
2021/03/15 08:07:27;;;;;;;6.20;5.90;;;5.10;99.90;;;;;;10355164;28;20264;-77
2021/03/15 08:12:34;;;;;;;5.77;5.57;;;5.10;99.90;;;;;;10374006;28;20203;-77
2021/03/15 08:17:37;;;;;;;6.13;5.83;;;5.20;99.90;;;;;;10390396;22;20312;-77
2021/03/15 08:22:41;;;;;;;4.87;4.67;;;5.30;99.90;;;;;;10379629;28;20222;-79
2021/03/15 08:27:47;;;;;;;5.80;5.50;;;5.50;99.90;;;;;;10380166;28;20254;-78
2021/03/15 08:32:49;;;;;;;5.73;5.43;;;5.70;99.90;;;;;;10382962;28;20217;-78
2021/03/15 08:37:57;;;;;;;4.97;4.77;;;5.90;99.90;;;;;;10379718;28;20313;-77
2021/03/15 08:48:56;;;;;;;3.10;3.00;;;6.10;99.90;;;;;;10584023;27;20527;-79
2021/03/15 08:53:57;;;;;;;4.70;4.50;;;6.20;99.90;;;;;;10585488;28;20659;-79
2021/03/15 08:59:00;;;;;;;4.40;4.20;;;6.20;99.90;;;;;;10586771;28;20219;-79
2021/03/15 09:04:04;;;;;;;4.07;3.87;;;6.30;99.90;;;;;;10584474;28;20225;-79
2021/03/15 09:09:07;;;;;;;4.13;3.93;;;6.20;99.90;;;;;;10585055;28;20211;-79
2021/03/15 09:14:30;;;;;;;4.43;4.07;;;6.30;99.90;;;;;;10585193;28;20211;-79
2021/03/15 09:19:34;;;;;;;3.80;3.60;;;6.30;99.90;;;;;;10577748;28;20228;-79
2021/03/15 09:24:51;;;;;;;2.40;2.30;;;6.30;99.90;;;;;;10582987;28;20239;-79
2021/03/15 09:29:54;;;;;;;2.50;2.40;;;6.40;99.90;;;;;;10584774;28;20214;-79
2021/03/15 09:35:01;;;;;;;4.20;4.00;;;6.50;99.90;;;;;;10592759;28;20215;-78
2021/03/15 09:40:04;;;;;;;3.27;3.17;;;6.60;99.90;;;;;;10561007;28;20314;-78
2021/03/15 09:45:09;;;;;;;3.90;3.70;;;6.80;99.90;;;;;;10579350;28;20218;-78
2021/03/15 09:50:20;;;;;;;4.23;4.03;;;6.90;99.90;;;;;;10565114;28;20216;-79
2021/03/15 09:55:28;;;;;;;5.33;5.00;;;7.10;99.90;;;;;;10572868;28;20188;-79
2021/03/15 10:00:29;;;;;;;5.20;5.00;;;7.20;99.90;;;;;;10531822;28;20604;-77
2021/03/15 10:05:59;;;;;;;4.10;3.80;;;7.20;99.90;;;;;;10527641;28;20219;-79
2021/03/15 10:11:30;;;;;;;5.23;4.93;;;7.10;99.90;;;;;;10519061;28;20207;-79
2021/03/15 10:17:00;;;;;;;4.90;4.70;;;7.10;99.90;;;;;;10543119;28;20251;-81
2021/03/15 10:22:23;;;;;;;4.57;4.37;;;7.20;99.90;;;;;;10525878;28;20671;-81
2021/03/15 10:27:31;;;;;;;4.80;4.40;;;7.20;99.90;;;;;;10502271;28;20260;-79
2021/03/15 10:32:35;;;;;;;3.80;3.60;;;7.30;99.90;;;;;;10522822;28;20192;-79
2021/03/15 10:37:39;;;;;;;4.33;4.13;;;7.40;99.90;;;;;;10520803;28;20752;-78
2021/03/15 10:42:53;;;;;;;5.40;5.10;;;7.50;99.90;;;;;;10535165;28;20200;-80
2021/03/15 10:48:00;;;;;;;5.63;5.33;;;7.60;99.90;;;;;;10499621;28;20645;-80
2021/03/15 10:53:13;;;;;;;5.50;5.20;;;7.70;99.90;;;;;;10520592;28;20202;-80
2021/03/15 10:58:18;;;;;;;4.80;4.60;;;7.80;99.90;;;;;;10526438;28;20592;-79
2021/03/15 11:03:43;;;;;;;5.60;5.30;;;7.90;99.90;;;;;;10538685;28;20203;-80
2021/03/15 11:08:55;;;;;;;3.20;3.00;;;8.20;99.90;;;;;;10535535;28;20734;-79
2021/03/15 11:13:58;;;;;;;4.77;4.50;;;8.40;99.90;;;;;;10537678;28;20309;-80
2021/03/15 11:19:11;;;;;;;4.13;3.93;;;8.50;99.90;;;;;;10537912;28;20215;-79
2021/03/15 11:24:26;;;;;;;4.40;4.20;;;8.60;99.90;;;;;;10505770;28;20208;-80
2021/03/15 11:29:51;;;;;;;4.10;3.90;;;8.70;99.90;;;;;;10507275;28;20305;-79
2021/03/15 11:35:07;;;;;;;4.13;3.93;;;8.90;99.90;;;;;;10538901;28;20221;-79
2021/03/15 11:40:36;;;;;;;3.80;3.60;;;8.80;99.90;;;;;;10516457;28;20215;-81
2021/03/15 11:45:38;;;;;;;4.47;4.27;;;8.80;99.90;;;;;;10533857;28;20223;-79
2021/03/15 11:50:40;;;;;;;3.93;3.73;;;8.90;99.90;;;;;;10538329;28;20522;-79
2021/03/15 11:55:49;;;;;;;3.70;3.60;;;8.80;99.90;;;;;;10530249;28;20587;-79
2021/03/15 12:00:53;;;;;;;3.90;3.70;;;8.80;99.90;;;;;;10509198;28;20343;-78
2021/03/15 12:06:01;;;;;;;4.93;4.63;;;8.80;99.90;;;;;;10471247;28;20699;-81
2021/03/15 12:11:15;;;;;;;3.83;3.70;;;8.70;99.90;;;;;;10483158;28;20311;-81
2021/03/15 12:16:17;;;;;;;4.43;4.20;;;8.80;99.90;;;;;;10461631;28;20197;-81
2021/03/15 12:21:19;;;;;;;4.37;4.17;;;8.90;99.90;;;;;;10480494;28;20220;-82
2021/03/15 12:26:28;;;;;;;4.10;3.90;;;8.90;99.90;;;;;;10477237;28;20215;-79
2021/03/15 12:31:41;;;;;;;4.60;4.40;;;8.80;99.90;;;;;;10500922;28;20201;-80
2021/03/15 12:36:43;;;;;;;4.50;4.30;;;8.80;99.90;;;;;;10525521;28;20227;-81
2021/03/15 12:41:47;;;;;;;4.30;4.10;;;8.80;99.90;;;;;;10519007;28;20291;-80
2021/03/15 12:46:49;;;;;;;3.80;3.60;;;8.70;99.90;;;;;;10509568;28;20231;-79
2021/03/15 12:52:02;;;;;;;4.50;4.20;;;8.70;99.90;;;;;;10533141;28;20244;-78
2021/03/15 12:57:14;;;;;;;4.53;4.33;;;8.70;99.90;;;;;;10531803;28;20220;-78
2021/03/15 13:02:25;;;;;;;4.33;4.03;;;8.80;99.90;;;;;;10535914;28;20208;-79
2021/03/15 13:07:27;;;;;;;4.27;3.97;;;8.90;99.90;;;;;;10531641;28;20265;-79
2021/03/15 13:12:42;;;;;;;4.33;4.03;;;9.00;99.90;;;;;;10517104;28;20200;-80
2021/03/15 13:17:51;;;;;;;3.90;3.60;;;9.00;99.90;;;;;;10528649;28;20230;-80
2021/03/15 13:22:58;;;;;;;3.40;3.20;;;9.00;99.90;;;;;;10498904;28;20199;-77
2021/03/15 13:28:10;;;;;;;3.90;3.37;;;9.10;99.90;;;;;;10479095;28;20284;-78
2021/03/15 13:33:12;;;;;;;4.20;3.87;;;9.10;99.90;;;;;;10528249;28;20195;-80
2021/03/15 13:38:17;;;;;;;4.17;3.83;;;9.00;99.90;;;;;;10531615;28;20216;-79
2021/03/15 13:43:33;;;;;;;4.00;3.70;;;9.10;99.90;;;;;;10530588;28;20252;-78
2021/03/15 13:48:40;;;;;;;3.60;3.30;;;9.10;99.90;;;;;;10530239;28;20722;-78
2021/03/15 13:53:41;;;;;;;3.13;2.93;;;9.10;99.00;;;;;;10503595;28;20219;-79
2021/03/15 13:58:47;;;;;;;4.23;2.87;;;9.20;99.40;;;;;;10524687;28;20231;-78
2021/03/15 14:03:53;;;;;;;4.20;3.13;;;9.30;99.50;;;;;;10532577;28;20204;-80
2021/03/15 14:09:09;;;;;;;3.40;3.10;;;9.30;99.10;;;;;;10535384;28;20278;-80
2021/03/15 14:14:17;;;;;;;3.93;3.13;;;9.30;98.90;;;;;;10535244;28;20190;-81
2021/03/15 14:19:28;;;;;;;3.30;3.10;;;9.20;97.70;;;;;;10527389;28;20216;-79
2021/03/15 14:24:47;;;;;;;4.37;3.47;;;9.10;97.90;;;;;;10533468;28;20704;-80
2021/03/15 14:30:06;;;;;;;5.60;4.03;;;9.10;97.30;;;;;;10525878;28;20217;-79
2021/03/15 14:35:11;;;;;;;5.70;4.07;;;9.10;97.70;;;;;;10528996;28;20200;-80
2021/03/15 14:40:28;;;;;;;3.33;3.10;;;9.20;97.10;;;;;;10492462;28;20244;-78
2021/03/15 14:45:33;;;;;;;3.77;3.53;;;9.20;97.20;;;;;;10522477;28;20212;-79
2021/03/15 14:50:41;;;;;;;3.80;3.50;;;9.10;98.20;;;;;;10543523;28;20216;-78
2021/03/15 14:56:07;;;;;;;4.43;3.83;;;8.90;97.90;;;;;;10549124;28;20204;-76
2021/03/15 15:01:12;;;;;;;3.90;3.40;;;8.80;98.40;;;;;;10542328;28;20223;-78
2021/03/15 15:06:16;;;;;;;4.10;3.80;;;8.80;98.70;;;;;;10528352;28;20219;-79
2021/03/15 15:11:18;;;;;;;6.50;3.43;;;8.70;99.90;;;;;;10512029;28;20243;-77
2021/03/15 15:16:23;;;;;;;4.30;3.90;;;8.70;99.50;;;;;;10528527;28;20196;-78
2021/03/15 15:21:26;;;;;;;4.33;3.90;;;8.80;99.90;;;;;;10508184;28;20202;-79
2021/03/15 15:26:29;;;;;;;3.80;3.50;;;8.90;99.90;;;;;;10529070;28;20277;-77
2021/03/15 15:31:31;;;;;;;3.67;3.40;;;9.10;99.30;;;;;;10510994;28;20203;-79
2021/03/15 15:36:36;;;;;;;3.10;2.87;;;9.40;98.90;;;;;;10528693;28;20412;-79
2021/03/15 15:41:38;;;;;;;3.00;2.80;;;9.50;98.50;;;;;;10527872;28;20245;-78
2021/03/15 15:46:41;;;;;;;3.23;2.93;;;9.60;98.10;;;;;;10525794;28;20231;-79
2021/03/15 15:51:43;;;;;;;3.20;2.97;;;9.60;98.10;;;;;;10496762;28;20295;-78
2021/03/15 15:56:47;;;;;;;3.43;2.77;;;9.50;97.40;;;;;;10527138;28;20638;-79
2021/03/15 16:01:49;;;;;;;7.47;4.00;;;9.30;97.60;;;;;;10497288;28;20204;-77
2021/03/15 16:06:51;;;;;;;2.60;2.40;;;9.20;98.30;;;;;;10528865;28;20711;-80
2021/03/15 16:11:53;;;;;;;2.63;2.40;;;9.10;97.90;;;;;;10499577;28;20527;-78
2021/03/15 16:16:57;;;;;;;4.73;2.80;;;9.10;98.20;;;;;;10488561;28;20616;-79
2021/03/15 16:21:58;;;;;;;2.20;2.10;;;9.00;99.30;;;;;;10508064;28;20271;-78
2021/03/15 16:27:00;;;;;;;3.07;2.60;;;8.90;98.70;;;;;;10527698;28;20253;-80
2021/03/15 16:32:03;;;;;;;3.27;2.87;;;8.80;99.10;;;;;;10522627;28;20307;-80
2021/03/15 16:37:05;;;;;;;5.97;2.73;;;8.70;99.00;;;;;;10527821;28;20216;-81
2021/03/15 16:42:08;;;;;;;4.43;2.80;;;8.70;99.90;;;;;;10531517;28;20200;-79
2021/03/15 16:47:10;;;;;;;3.33;2.93;;;8.80;99.90;;;;;;10516146;28;20253;-80
2021/03/15 16:52:13;;;;;;;3.30;2.90;;;8.80;99.90;;;;;;10529385;28;20567;-80
2021/03/15 16:57:14;;;;;;;2.97;2.70;;;8.90;99.90;;;;;;10528741;28;20208;-80
2021/03/15 17:02:18;;;;;;;3.10;2.20;;;8.90;99.90;;;;;;10520700;28;20883;-81
2021/03/15 17:07:19;;;;;;;3.40;2.13;;;8.90;99.40;;;;;;10530743;28;20241;-79
2021/03/15 17:12:21;;;;;;;2.63;2.40;;;8.60;99.90;;;;;;10538090;28;20222;-79
2021/03/15 17:17:24;;;;;;;3.60;2.73;;;8.40;99.90;;;;;;10537980;28;20298;-79
2021/03/15 17:22:26;;;;;;;2.97;2.77;;;8.20;99.90;;;;;;10496171;28;20196;-79
2021/03/15 17:27:27;;;;;;;4.13;2.90;;;8.10;99.90;;;;;;10532975;28;20226;-80
2021/03/15 17:32:30;;;;;;;3.50;3.20;;;8.00;99.90;;;;;;10511254;28;20196;-81
2021/03/15 17:37:32;;;;;;;4.00;3.70;;;7.80;99.90;;;;;;10496946;28;20227;-81
2021/03/15 17:42:33;;;;;;;3.57;3.27;;;7.80;99.90;;;;;;10505767;28;20545;-81
2021/03/15 17:47:36;;;;;;;6.83;4.03;;;7.70;99.90;;;;;;10498558;28;20227;-81
2021/03/15 17:52:38;;;;;;;5.30;3.40;;;7.70;99.90;;;;;;10487082;28;20200;-82
2021/03/15 17:57:40;;;;;;;4.20;3.40;;;7.70;99.90;;;;;;10480143;28;20240;-81
2021/03/15 18:02:43;;;;;;;3.77;3.47;;;7.70;99.90;;;;;;10505801;28;20204;-81
2021/03/15 18:07:44;;;;;;;3.67;3.03;;;7.60;99.90;;;;;;10484514;28;20288;-81
2021/03/15 18:12:46;;;;;;;3.43;3.13;;;7.60;99.90;;;;;;10530552;28;20532;-80
2021/03/15 18:17:51;;;;;;;3.43;3.13;;;7.50;99.90;;;;;;10505992;28;20216;-81
2021/03/15 18:22:52;;;;;;;4.33;3.60;;;7.50;99.90;;;;;;10503109;28;20196;-81
2021/03/15 18:27:54;;;;;;;3.93;3.53;;;7.50;99.90;;;;;;10502830;28;20259;-81
2021/03/15 18:32:57;;;;;;;3.23;3.03;;;7.40;99.90;;;;;;10501381;28;20199;-81
2021/03/15 18:37:58;;;;;;;5.00;3.43;;;7.40;99.90;;;;;;10495240;28;20208;-80
2021/03/15 18:43:00;;;;;;;4.37;3.63;;;7.40;99.90;;;;;;10505194;28;20200;-80
2021/03/15 18:48:03;;;;;;;4.40;3.40;;;7.40;99.90;;;;;;10519335;28;20268;-81
2021/03/15 18:53:05;;;;;;;3.20;2.90;;;7.30;99.90;;;;;;10497537;28;20212;-80
2021/03/15 18:58:06;;;;;;;3.00;2.70;;;7.30;99.90;;;;;;10507434;28;20215;-79
2021/03/15 19:03:09;;;;;;;3.40;2.40;;;7.30;99.90;;;;;;10537605;28;20200;-81
2021/03/15 19:08:11;;;;;;;2.83;2.60;;;7.40;99.90;;;;;;10504151;28;20228;-80
2021/03/15 19:13:13;;;;;;;2.20;2.10;;;7.40;99.90;;;;;;10503590;28;20195;-79
2021/03/15 19:18:15;;;;;;;2.40;2.20;;;7.30;99.90;;;;;;10501562;28;20307;-80
2021/03/15 19:23:17;;;;;;;4.07;3.07;;;7.30;99.90;;;;;;10488959;28;20203;-79
2021/03/15 19:28:20;;;;;;;3.40;3.10;;;7.20;99.90;;;;;;10505310;28;20234;-80
2021/03/15 19:33:22;;;;;;;4.00;3.60;;;7.20;99.90;;;;;;10487905;28;20205;-78
2021/03/15 19:38:24;;;;;;;2.70;2.50;;;7.30;99.90;;;;;;10484146;28;20214;-77
2021/03/15 19:43:26;;;;;;;3.07;2.63;;;7.30;99.90;;;;;;10524260;28;20218;-78
2021/03/15 19:48:28;;;;;;;3.80;3.20;;;7.40;99.90;;;;;;10525273;28;20243;-78
2021/03/15 19:53:30;;;;;;;3.67;2.77;;;7.40;99.90;;;;;;10501799;28;20204;-77
2021/03/15 19:58:32;;;;;;;2.63;2.43;;;7.40;99.90;;;;;;10493896;28;20399;-78
2021/03/15 20:03:34;;;;;;;2.90;2.70;;;7.50;99.90;;;;;;10478544;28;20200;-78
2021/03/15 20:08:36;;;;;;;2.57;2.40;;;7.50;99.90;;;;;;10506765;28;20654;-77
2021/03/15 20:13:41;;;;;;;3.20;2.40;;;7.60;99.90;;;;;;10522337;28;20595;-78
2021/03/15 20:18:44;;;;;;;3.13;2.70;;;7.60;99.90;;;;;;10502542;28;20226;-78
2021/03/15 20:23:46;;;;;;;2.03;1.90;;;7.60;99.90;;;;;;10498566;28;20196;-77
2021/03/15 20:28:47;;;;;;;2.57;2.37;;;7.60;99.90;;;;;;10498389;28;20318;-78
2021/03/15 20:33:50;;;;;;;3.30;2.40;;;7.60;99.90;;;;;;10484503;28;20205;-80
2021/03/15 20:38:53;;;;;;;2.53;2.33;;;7.60;99.90;;;;;;10482708;28;20744;-77
2021/03/15 20:43:57;;;;;;;3.93;2.50;;;7.70;99.90;;;;;;10477989;28;20212;-80
2021/03/15 20:49:00;;;;;;;2.47;2.23;;;7.70;99.90;;;;;;10477474;28;20212;-80
2021/03/15 20:54:02;;;;;;;3.43;2.17;;;7.80;99.90;;;;;;10484265;28;20205;-79
2021/03/15 20:59:04;;;;;;;3.43;2.40;;;7.80;99.90;;;;;;10497404;28;20686;-80
2021/03/15 21:04:06;;;;;;;3.23;1.93;;;7.80;99.90;;;;;;10501742;28;20288;-79
2021/03/15 21:09:08;;;;;;;4.53;2.40;;;7.80;99.90;;;;;;10513816;28;20224;-78
2021/03/15 21:14:10;;;;;;;2.73;2.10;;;7.80;99.90;;;;;;10528722;28;20712;-78
2021/03/15 21:19:12;;;;;;;2.57;2.13;;;7.80;99.90;;;;;;10520304;28;20215;-80
2021/03/15 21:24:14;;;;;;;2.23;2.03;;;7.70;99.90;;;;;;10477067;28;20585;-79
2021/03/15 21:29:16;;;;;;;2.30;2.20;;;7.60;99.90;;;;;;10496330;28;20729;-79
2021/03/15 21:34:19;;;;;;;2.67;2.13;;;7.60;99.90;;;;;;10528676;28;20200;-81
2021/03/15 21:39:22;;;;;;;3.57;2.27;;;7.70;99.90;;;;;;10513892;28;20209;-80
2021/03/15 21:44:23;;;;;;;2.23;2.03;;;7.70;99.90;;;;;;10493116;28;20201;-77
2021/03/15 21:49:26;;;;;;;2.40;2.10;;;7.70;99.90;;;;;;10503957;28;20232;-79
2021/03/15 21:54:27;;;;;;;2.23;2.03;;;7.60;99.90;;;;;;10488315;28;20652;-76
2021/03/15 21:59:29;;;;;;;3.97;2.80;;;7.50;99.90;;;;;;10513648;28;20207;-79
2021/03/15 22:04:32;;;;;;;3.03;2.70;;;7.50;99.90;;;;;;10538864;28;20287;-80
2021/03/15 22:09:33;;;;;;;2.27;2.10;;;7.50;99.90;;;;;;10539205;28;20741;-80
2021/03/15 22:14:35;;;;;;;2.10;2.00;;;7.50;99.90;;;;;;10540021;28;20280;-80
2021/03/15 22:19:37;;;;;;;2.10;2.00;;;7.50;99.90;;;;;;10540621;28;20220;-79
2021/03/15 22:24:40;;;;;;;4.07;3.30;;;7.50;99.90;;;;;;10542366;28;20204;-79
2021/03/15 22:29:42;;;;;;;2.80;2.30;;;7.50;99.90;;;;;;10538187;28;20219;-79
2021/03/15 22:34:44;;;;;;;2.90;2.23;;;7.50;99.90;;;;;;10536297;28;20215;-78
2021/03/15 22:39:46;;;;;;;3.90;2.63;;;7.50;99.90;;;;;;10537052;28;20234;-80
2021/03/15 22:44:48;;;;;;;4.27;2.73;;;7.40;99.90;;;;;;10511848;28;20747;-80
2021/03/15 22:49:50;;;;;;;3.30;3.10;;;7.40;99.90;;;;;;10534255;28;20223;-77
2021/03/15 22:54:52;;;;;;;4.10;3.20;;;7.30;99.90;;;;;;10534422;28;20202;-80
2021/03/15 22:59:53;;;;;;;3.73;3.43;;;7.30;99.90;;;;;;10532345;28;20719;-78
2021/03/15 23:04:56;;;;;;;4.53;3.83;;;7.30;99.90;;;;;;10534132;28;20691;-79
2021/03/15 23:09:59;;;;;;;4.63;4.20;;;7.30;99.90;;;;;;10534312;28;20220;-79
2021/03/15 23:15:01;;;;;;;8.17;3.83;;;7.30;99.90;;;;;;10534033;28;20670;-80
2021/03/15 23:20:04;;;;;;;3.63;3.30;;;7.30;99.90;;;;;;10533388;28;20249;-80
2021/03/15 23:25:09;;;;;;;2.90;2.70;;;7.30;99.90;;;;;;10535710;28;20411;-80
2021/03/15 23:30:15;;;;;;;5.10;3.90;;;7.30;99.90;;;;;;10535790;28;20285;-80
2021/03/15 23:35:18;;;;;;;5.23;3.23;;;7.30;99.90;;;;;;10539465;28;20278;-78
2021/03/15 23:40:20;;;;;;;4.80;3.47;;;7.30;99.90;;;;;;10506390;28;20223;-80
2021/03/15 23:45:22;;;;;;;7.00;3.30;;;7.30;99.90;;;;;;10516465;28;20223;-81
2021/03/15 23:50:31;;;;;;;3.80;3.40;;;7.30;99.90;;;;;;10538415;28;20699;-80
2021/03/15 23:55:52;;;;;;;5.00;2.90;;;7.20;99.90;;;;;;10546946;28;20188;-80
